Time;durP1;ratioP1;P1;durP2;ratioP2;P2;SDS_P1;SDS_P2;PMS_P1;PMS_P2;Temp;Humidity;BMP_temperature;BMP_pressure;BME280_temperature;BME280_humidity;BME280_pressure;Samples;Min_cycle;Max_cycle;Signal;HPM_P1;HPM_P2
2021/06/28 00:00:18;;;;;;;;;;;14.30;87.30;;;;;;5015511;28;20393;-70
2021/06/28 00:02:43;;;;;;;;;;;14.30;87.00;;;;;;5015882;28;19924;-69
2021/06/28 00:05:09;;;;;;;;;;;14.40;87.50;;;;;;5015523;28;19931;-70
2021/06/28 00:07:35;;;;;;;;;;;14.40;87.80;;;;;;5014974;28;19925;-70
2021/06/28 00:10:00;;;;;;;;;;;14.30;88.30;;;;;;5014267;28;20237;-70
2021/06/28 00:12:26;;;;;;;;;;;14.30;87.70;;;;;;5015883;28;19922;-70
2021/06/28 00:14:51;;;;;;;;;;;14.40;87.80;;;;;;5015431;28;20043;-69
2021/06/28 00:17:17;;;;;;;;;;;14.40;86.70;;;;;;5013927;28;19928;-69
2021/06/28 00:19:42;;;;;;;;;;;14.40;87.10;;;;;;5015031;28;19929;-72
2021/06/28 00:22:08;;;;;;;;;;;14.30;86.80;;;;;;5015309;28;19961;-70
2021/06/28 00:24:33;;;;;;;;;;;14.10;86.70;;;;;;5015929;28;19927;-69
2021/06/28 00:26:59;;;;;;;;;;;14.00;87.00;;;;;;5014741;28;19928;-69
2021/06/28 00:29:24;;;;;;;;;;;13.90;87.10;;;;;;5015357;28;19929;-70
2021/06/28 00:31:53;;;;;;;;;;;13.80;87.30;;;;;;5015283;28;19931;-71
2021/06/28 00:34:19;;;;;;;;;;;13.80;87.60;;;;;;5015404;28;19925;-69
2021/06/28 00:36:44;;;;;;;;;;;13.80;87.50;;;;;;5013891;28;20284;-70
2021/06/28 00:39:10;;;;;;;;;;;13.90;87.40;;;;;;5015203;28;20409;-69
2021/06/28 00:41:35;;;;;;;;;;;13.80;87.10;;;;;;5014982;28;19924;-69
2021/06/28 00:44:01;;;;;;;;;;;13.90;87.50;;;;;;5014984;28;20013;-70
2021/06/28 00:46:26;;;;;;;;;;;13.90;87.60;;;;;;5014929;28;19929;-69
2021/06/28 00:48:52;;;;;;;;;;;13.90;87.70;;;;;;5001957;28;19924;-70
2021/06/28 00:51:17;;;;;;;;;;;13.80;87.40;;;;;;4995185;28;19921;-70
2021/06/28 00:53:43;;;;;;;;;;;13.80;87.40;;;;;;4995442;28;19947;-69
2021/06/28 00:56:09;;;;;;;;;;;13.70;88.10;;;;;;4994792;28;20339;-70
2021/06/28 00:58:37;;;;;;;;;;;13.70;88.00;;;;;;4994000;28;20289;-70
2021/06/28 01:01:02;;;;;;;;;;;13.70;87.50;;;;;;4993779;28;20306;-70
2021/06/28 01:03:28;;;;;;;;;;;13.70;87.70;;;;;;4995288;28;19926;-69
2021/06/28 01:05:53;;;;;;;;;;;13.70;88.10;;;;;;4994892;28;19922;-70
2021/06/28 01:08:19;;;;;;;;;;;13.70;88.10;;;;;;4994614;28;20390;-71
2021/06/28 01:10:45;;;;;;;;;;;13.70;88.40;;;;;;4994695;28;20300;-70
2021/06/28 01:13:10;;;;;;;;;;;13.60;88.80;;;;;;4994984;28;19928;-70
2021/06/28 01:15:36;;;;;;;;;;;13.60;88.00;;;;;;4994614;28;19943;-70
2021/06/28 01:18:02;;;;;;;;;;;13.50;87.60;;;;;;4993391;28;19922;-69
2021/06/28 01:20:27;;;;;;;;;;;13.50;87.60;;;;;;4994410;28;19922;-70
2021/06/28 01:22:54;;;;;;;;;;;13.50;87.70;;;;;;4994788;28;19924;-70
2021/06/28 01:25:20;;;;;;;;;;;13.50;87.70;;;;;;4993504;28;19927;-69
2021/06/28 01:27:46;;;;;;;;;;;13.50;88.40;;;;;;4993144;28;20394;-71
2021/06/28 01:30:13;;;;;;;;;;;13.60;88.30;;;;;;4994530;28;20021;-70
2021/06/28 01:32:38;;;;;;;;;;;13.60;88.20;;;;;;4994581;28;19924;-71
2021/06/28 01:35:04;;;;;;;;;;;13.60;87.80;;;;;;4994594;28;19948;-69
2021/06/28 01:37:30;;;;;;;;;;;13.60;87.90;;;;;;4994619;28;19932;-68
2021/06/28 01:39:56;;;;;;;;;;;13.50;88.00;;;;;;4994385;28;20023;-70
2021/06/28 01:42:21;;;;;;;;;;;13.50;88.10;;;;;;4994129;28;20379;-71
2021/06/28 01:44:47;;;;;;;;;;;13.60;88.30;;;;;;4994470;28;19934;-69
2021/06/28 01:47:12;;;;;;;;;;;13.60;88.30;;;;;;4994181;28;20365;-69
2021/06/28 01:49:38;;;;;;;;;;;13.60;88.80;;;;;;5013190;28;19928;-70
2021/06/28 01:52:04;;;;;;;;;;;13.60;88.80;;;;;;5012662;28;19922;-69
2021/06/28 01:54:29;;;;;;;;;;;13.60;88.10;;;;;;5015473;28;19944;-69
2021/06/28 01:56:55;;;;;;;;;;;13.60;88.10;;;;;;5015339;28;20001;-69
2021/06/28 01:59:29;;;;;;;;;;;13.60;87.90;;;;;;5013961;28;19935;-69
2021/06/28 02:01:55;;;;;;;;;;;13.50;88.50;;;;;;5013403;28;20391;-70
2021/06/28 02:04:20;;;;;;;;;;;13.50;88.60;;;;;;5013821;28;19978;-70
2021/06/28 02:06:46;;;;;;;;;;;13.50;88.90;;;;;;5013178;28;20012;-71
2021/06/28 02:09:11;;;;;;;;;;;13.50;88.80;;;;;;5013334;28;20068;-70
2021/06/28 02:11:37;;;;;;;;;;;13.60;88.80;;;;;;5013042;28;20486;-69
2021/06/28 02:14:02;;;;;;;;;;;13.60;89.40;;;;;;5013622;28;19928;-70
2021/06/28 02:16:28;;;;;;;;;;;13.60;88.80;;;;;;5011950;28;20030;-70
2021/06/28 02:18:53;;;;;;;;;;;13.70;88.00;;;;;;5013026;28;20301;-69
2021/06/28 02:21:18;;;;;;;;;;;13.60;88.10;;;;;;5012579;28;19965;-70
2021/06/28 02:23:44;;;;;;;;;;;13.60;88.50;;;;;;5013382;28;19921;-69
2021/06/28 02:26:10;;;;;;;;;;;13.50;89.00;;;;;;5013152;28;20303;-70
2021/06/28 02:28:36;;;;;;;;;;;13.60;89.30;;;;;;5012967;28;19922;-69
2021/06/28 02:31:02;;;;;;;;;;;13.60;88.80;;;;;;5011985;28;19929;-70
2021/06/28 02:33:28;;;;;;;;;;;13.70;88.60;;;;;;5012149;28;20384;-69
2021/06/28 02:35:53;;;;;;;;;;;13.70;89.20;;;;;;5012165;28;19999;-70
2021/06/28 02:38:19;;;;;;;;;;;13.60;88.90;;;;;;5012827;28;19925;-69
2021/06/28 02:40:44;;;;;;;;;;;13.70;89.10;;;;;;5013278;28;19920;-71
2021/06/28 02:43:10;;;;;;;;;;;13.70;89.00;;;;;;5012719;28;20100;-70
2021/06/28 02:45:36;;;;;;;;;;;13.70;88.50;;;;;;5012957;28;19998;-70
2021/06/28 02:48:01;;;;;;;;;;;13.70;88.90;;;;;;5006703;28;19927;-70
2021/06/28 02:50:27;;;;;;;;;;;13.70;88.60;;;;;;4993333;28;19932;-70
2021/06/28 02:52:52;;;;;;;;;;;13.70;88.70;;;;;;4993328;28;19934;-70
2021/06/28 02:55:18;;;;;;;;;;;13.70;89.10;;;;;;4993423;28;20417;-70
2021/06/28 02:57:44;;;;;;;;;;;13.80;88.70;;;;;;4992493;28;19969;-71
2021/06/28 03:00:13;;;;;;;;;;;13.90;88.80;;;;;;4992006;28;19937;-69
2021/06/28 03:02:39;;;;;;;;;;;13.90;89.00;;;;;;4993247;28;19925;-70
2021/06/28 03:05:05;;;;;;;;;;;13.80;88.70;;;;;;4993535;28;19922;-69
2021/06/28 03:07:30;;;;;;;;;;;13.70;90.40;;;;;;4991674;28;19923;-69
2021/06/28 03:09:56;;;;;;;;;;;13.80;90.20;;;;;;4991949;28;20064;-69
2021/06/28 03:12:22;;;;;;;;;;;13.80;90.70;;;;;;4992994;28;20036;-69
2021/06/28 03:14:47;;;;;;;;;;;13.90;90.30;;;;;;4993393;28;19951;-70
2021/06/28 03:17:12;;;;;;;;;;;13.90;90.60;;;;;;4991810;28;19931;-70
2021/06/28 03:19:38;;;;;;;;;;;13.90;90.70;;;;;;4992740;28;20388;-70
2021/06/28 03:22:03;;;;;;;;;;;13.80;91.20;;;;;;4992995;28;19924;-70
2021/06/28 03:24:29;;;;;;;;;;;13.80;91.20;;;;;;4993357;28;20017;-70
2021/06/28 03:26:54;;;;;;;;;;;13.80;91.70;;;;;;4992989;28;20415;-69
2021/06/28 03:29:20;;;;;;;;;;;13.80;91.70;;;;;;4992963;28;19923;-69
2021/06/28 03:31:45;;;;;;;;;;;13.80;91.50;;;;;;4992765;28;20382;-70
2021/06/28 03:34:11;;;;;;;;;;;13.80;91.30;;;;;;4995268;28;20010;-70
2021/06/28 03:36:36;;;;;;;;;;;13.90;91.30;;;;;;4996557;28;19968;-70
2021/06/28 03:39:02;;;;;;;;;;;13.90;90.80;;;;;;4996491;28;20404;-70
2021/06/28 03:41:28;;;;;;;;;;;14.00;91.40;;;;;;4996566;28;19977;-69
2021/06/28 03:43:53;;;;;;;;;;;14.00;90.80;;;;;;4996439;28;19924;-70
2021/06/28 03:46:19;;;;;;;;;;;14.00;91.10;;;;;;4996167;28;19958;-71
2021/06/28 03:48:44;;;;;;;;;;;14.00;91.90;;;;;;5007614;28;19956;-70
2021/06/28 03:51:10;;;;;;;;;;;13.90;92.80;;;;;;5016094;28;19963;-69
2021/06/28 03:53:35;;;;;;;;;;;13.80;92.20;;;;;;5015812;28;19951;-69
2021/06/28 03:56:07;;;;;;;;;;;13.80;91.60;;;;;;5014080;28;19992;-70
2021/06/28 03:58:34;;;;;;;;;;;13.90;91.40;;;;;;5015499;28;19975;-69
2021/06/28 04:00:59;;;;;;;;;;;13.90;91.50;;;;;;5015728;28;20413;-71
2021/06/28 04:03:27;;;;;;;;;;;13.90;90.80;;;;;;5015682;28;20374;-69
2021/06/28 04:05:52;;;;;;;;;;;13.90;91.80;;;;;;5015721;28;20290;-70
2021/06/28 04:08:18;;;;;;;;;;;13.90;93.00;;;;;;5015150;28;20017;-70
2021/06/28 04:10:43;;;;;;;;;;;13.70;92.80;;;;;;5015591;28;19923;-70
2021/06/28 04:13:09;;;;;;;;;;;13.60;92.50;;;;;;5015479;28;19920;-71
2021/06/28 04:15:34;;;;;;;;;;;13.50;92.40;;;;;;5014582;28;19948;-69
2021/06/28 04:18:00;;;;;;;;;;;13.60;92.90;;;;;;5015267;28;19955;-70
2021/06/28 04:20:25;;;;;;;;;;;13.60;93.10;;;;;;5014029;28;20415;-68
2021/06/28 04:22:51;;;;;;;;;;;13.50;93.00;;;;;;5015942;28;19974;-71
2021/06/28 04:25:18;;;;;;;;;;;13.60;92.80;;;;;;5017617;28;19924;-70
2021/06/28 04:27:44;;;;;;;;;;;13.60;92.90;;;;;;5015125;28;19923;-68
2021/06/28 04:30:10;;;;;;;;;;;13.60;92.30;;;;;;5015385;28;19924;-69
2021/06/28 04:32:35;;;;;;;;;;;13.60;92.80;;;;;;5015203;28;19924;-70
2021/06/28 04:35:11;;;;;;;;;;;13.60;92.10;;;;;;5015422;28;19946;-70
2021/06/28 04:37:36;;;;;;;;;;;13.70;93.00;;;;;;5014781;28;19929;-70
2021/06/28 04:40:03;;;;;;;;;;;13.60;92.80;;;;;;5015171;28;19928;-70
2021/06/28 04:42:28;;;;;;;;;;;13.60;93.00;;;;;;5014881;28;19927;-69
2021/06/28 04:44:54;;;;;;;;;;;13.60;92.60;;;;;;5014922;28;20453;-70
2021/06/28 04:47:19;;;;;;;;;;;13.60;92.30;;;;;;5014290;28;19924;-70
2021/06/28 04:49:45;;;;;;;;;;;13.60;92.80;;;;;;4995202;28;19922;-69
2021/06/28 04:52:10;;;;;;;;;;;13.60;92.80;;;;;;4995262;28;19928;-71
2021/06/28 04:54:36;;;;;;;;;;;13.60;92.40;;;;;;4994151;28;20038;-70
2021/06/28 04:57:01;;;;;;;;;;;13.60;92.20;;;;;;4994738;28;19959;-70
2021/06/28 04:59:27;;;;;;;;;;;13.70;92.10;;;;;;4995165;28;20389;-70
2021/06/28 05:01:53;;;;;;;;;;;13.70;92.60;;;;;;4995088;28;19926;-69
2021/06/28 05:04:18;;;;;;;;;;;13.60;92.70;;;;;;4995294;28;19926;-70
2021/06/28 05:06:44;;;;;;;;;;;13.50;92.90;;;;;;4994646;28;19931;-69
2021/06/28 05:09:09;;;;;;;;;;;13.50;92.80;;;;;;4994842;28;19929;-70
2021/06/28 05:11:36;;;;;;;;;;;13.60;92.80;;;;;;4995080;28;19935;-70
2021/06/28 05:14:02;;;;;;;;;;;13.60;93.20;;;;;;4993872;28;20399;-71
2021/06/28 05:16:27;;;;;;;;;;;13.60;92.50;;;;;;4994613;28;19947;-69
2021/06/28 05:18:52;;;;;;;;;;;13.60;93.50;;;;;;4994394;28;19923;-70
2021/06/28 05:21:18;;;;;;;;;;;13.70;93.60;;;;;;4994805;28;20022;-70
2021/06/28 05:23:43;;;;;;;;;;;13.70;94.10;;;;;;4994807;28;19927;-70
2021/06/28 05:26:09;;;;;;;;;;;13.70;93.80;;;;;;4994675;28;19968;-70
2021/06/28 05:28:34;;;;;;;;;;;13.70;93.40;;;;;;4994171;28;19925;-70
2021/06/28 05:31:01;;;;;;;;;;;13.80;93.10;;;;;;4994512;28;20382;-69
2021/06/28 05:33:26;;;;;;;;;;;13.90;93.60;;;;;;4994623;28;19931;-71
2021/06/28 05:35:52;;;;;;;;;;;13.90;93.20;;;;;;4994507;28;19940;-70
2021/06/28 05:38:17;;;;;;;;;;;13.90;93.70;;;;;;4993867;28;20268;-70
2021/06/28 05:40:43;;;;;;;;;;;13.90;93.70;;;;;;4994506;28;19924;-70
2021/06/28 05:43:08;;;;;;;;;;;14.00;93.70;;;;;;4994243;28;19923;-70
2021/06/28 05:45:34;;;;;;;;;;;13.90;93.60;;;;;;4993328;28;19923;-69
2021/06/28 05:47:59;;;;;;;;;;;13.90;93.40;;;;;;4999198;28;19924;-71
2021/06/28 05:50:26;;;;;;;;;;;14.10;93.00;;;;;;5013806;28;19980;-71
2021/06/28 05:52:51;;;;;;;;;;;14.20;93.20;;;;;;5013678;28;19926;-69
2021/06/28 05:55:17;;;;;;;;;;;14.30;93.00;;;;;;5013457;28;20296;-70
2021/06/28 05:57:42;;;;;;;;;;;14.30;93.00;;;;;;5012106;28;20026;-71
2021/06/28 06:00:09;;;;;;;;;;;14.40;92.70;;;;;;5013689;28;19960;-70
2021/06/28 06:02:34;;;;;;;;;;;14.50;92.20;;;;;;5013646;28;19926;-70
2021/06/28 06:05:00;;;;;;;;;;;14.70;91.80;;;;;;5013863;28;19982;-70
2021/06/28 06:07:26;;;;;;;;;;;14.90;92.40;;;;;;5012807;28;19949;-70
2021/06/28 06:09:51;;;;;;;;;;;15.10;92.50;;;;;;5013527;28;20028;-70
2021/06/28 06:12:17;;;;;;;;;;;15.20;91.20;;;;;;5013426;28;20231;-70
2021/06/28 06:14:42;;;;;;;;;;;15.20;91.60;;;;;;5013569;28;19923;-70
2021/06/28 06:17:08;;;;;;;;;;;15.30;91.40;;;;;;5013072;28;20172;-71
2021/06/28 06:19:33;;;;;;;;;;;15.40;91.50;;;;;;5013055;28;20620;-70
2021/06/28 06:21:59;;;;;;;;;;;15.50;91.30;;;;;;5013599;28;20021;-70
2021/06/28 06:24:28;;;;;;;;;;;15.50;91.10;;;;;;5013400;28;20305;-70
2021/06/28 06:26:53;;;;;;;;;;;15.50;91.00;;;;;;5012996;28;19925;-70
2021/06/28 06:29:19;;;;;;;;;;;15.50;91.20;;;;;;5013036;28;20395;-70
2021/06/28 06:31:44;;;;;;;;;;;15.60;91.10;;;;;;5011634;28;20298;-69
2021/06/28 06:34:10;;;;;;;;;;;15.60;91.00;;;;;;5013308;28;19986;-71
2021/06/28 06:36:35;;;;;;;;;;;15.60;91.10;;;;;;5012883;28;19949;-70
2021/06/28 06:39:01;;;;;;;;;;;15.70;91.20;;;;;;5012905;28;19935;-70
2021/06/28 06:41:26;;;;;;;;;;;15.80;90.90;;;;;;5012929;28;19932;-69
2021/06/28 06:43:52;;;;;;;;;;;15.90;90.90;;;;;;5012914;28;20345;-69
2021/06/28 06:46:17;;;;;;;;;;;16.00;90.50;;;;;;5012965;28;20013;-72
2021/06/28 06:48:43;;;;;;;;;;;16.10;90.50;;;;;;5000842;28;19965;-69
2021/06/28 06:51:08;;;;;;;;;;;16.50;90.20;;;;;;4993526;28;20305;-70
2021/06/28 06:53:34;;;;;;;;;;;16.90;89.40;;;;;;4993223;28;20489;-71
2021/06/28 06:56:05;;;;;;;;;;;17.10;88.80;;;;;;4990962;28;19958;-73
2021/06/28 06:58:31;;;;;;;;;;;17.00;87.80;;;;;;4993056;28;19937;-73
2021/06/28 07:00:56;;;;;;;;;;;16.70;89.20;;;;;;4992963;28;19924;-73
2021/06/28 07:03:22;;;;;;;;;;;16.60;89.40;;;;;;4980698;28;19921;-72
2021/06/28 07:05:47;;;;;;;;;;;16.60;90.00;;;;;;4986619;28;20013;-73
2021/06/28 07:08:15;;;;;;;;;;;16.40;90.10;;;;;;4987052;28;19928;-71
2021/06/28 07:10:41;;;;;;;;;;;16.40;90.00;;;;;;4997893;28;19929;-72
2021/06/28 07:13:07;;;;;;;;;;;16.40;90.10;;;;;;4994485;28;19982;-72
2021/06/28 07:15:32;;;;;;;;;;;16.40;90.30;;;;;;4997510;28;19950;-72
2021/06/28 07:17:58;;;;;;;;;;;16.40;90.10;;;;;;4998600;28;19923;-72
2021/06/28 07:20:23;;;;;;;;;;;16.40;90.20;;;;;;4996347;28;19980;-72
2021/06/28 07:22:50;;;;;;;;;;;16.50;90.20;;;;;;4997947;28;20500;-72
2021/06/28 07:25:15;;;;;;;;;;;16.40;90.20;;;;;;4996467;28;19924;-71
2021/06/28 07:27:41;;;;;;;;;;;16.40;90.20;;;;;;4997807;28;20402;-72
2021/06/28 07:30:07;;;;;;;;;;;16.50;90.10;;;;;;4995159;28;20327;-72
2021/06/28 07:32:33;;;;;;;;;;;16.50;90.20;;;;;;4994782;28;20020;-73
2021/06/28 07:34:58;;;;;;;;;;;16.40;90.20;;;;;;4992381;28;20034;-72
2021/06/28 07:37:24;;;;;;;;;;;16.50;90.20;;;;;;4990942;28;19926;-73
2021/06/28 07:39:49;;;;;;;;;;;16.50;90.20;;;;;;4983769;28;19926;-71
2021/06/28 07:42:15;;;;;;;;;;;16.40;90.10;;;;;;4984375;28;19942;-72
2021/06/28 07:44:40;;;;;;;;;;;16.30;90.40;;;;;;4997267;28;19967;-70
2021/06/28 07:47:06;;;;;;;;;;;16.30;90.60;;;;;;4991649;28;19923;-72
2021/06/28 07:49:32;;;;;;;;;;;16.30;90.50;;;;;;4995761;28;19925;-73
2021/06/28 07:51:57;;;;;;;;;;;16.40;90.50;;;;;;4992658;28;20290;-70
2021/06/28 07:54:24;;;;;;;;;;;16.50;90.20;;;;;;4984434;28;20413;-70
2021/06/28 07:56:50;;;;;;;;;;;16.60;90.20;;;;;;4977154;28;19959;-70
2021/06/28 07:59:15;;;;;;;;;;;16.80;89.80;;;;;;4977854;28;19923;-70
2021/06/28 08:01:41;;;;;;;;;;;16.80;90.00;;;;;;4977715;28;19929;-70
2021/06/28 08:04:07;;;;;;;;;;;16.70;89.70;;;;;;4977636;28;19928;-70
2021/06/28 08:06:32;;;;;;;;;;;16.80;89.60;;;;;;4976329;28;19933;-70
2021/06/28 08:08:58;;;;;;;;;;;16.70;89.50;;;;;;4976451;28;19991;-70
2021/06/28 08:11:24;;;;;;;;;;;16.60;90.00;;;;;;4979881;28;19938;-71
2021/06/28 08:13:50;;;;;;;;;;;16.60;90.10;;;;;;5009094;28;19929;-71
2021/06/28 08:16:16;;;;;;;;;;;16.60;90.10;;;;;;4983872;28;20039;-71
2021/06/28 08:18:46;;;;;;;;;;;16.60;90.00;;;;;;4989876;28;20399;-71
2021/06/28 08:21:11;;;;;;;;;;;16.60;90.10;;;;;;4996090;28;19926;-71
2021/06/28 08:23:37;;;;;;;;;;;16.60;90.10;;;;;;4983419;28;20347;-71
2021/06/28 08:26:03;;;;;;;;;;;16.60;90.10;;;;;;4992601;28;19930;-71
2021/06/28 08:28:28;;;;;;;;;;;16.50;90.10;;;;;;5010702;28;20308;-71
2021/06/28 08:30:54;;;;;;;;;;;16.40;90.30;;;;;;4995881;28;19934;-71
2021/06/28 08:33:19;;;;;;;;;;;16.40;90.30;;;;;;4995233;28;20028;-71
2021/06/28 08:35:45;;;;;;;;;;;16.40;90.40;;;;;;4977563;28;19983;-70
2021/06/28 08:38:11;;;;;;;;;;;16.40;90.50;;;;;;4977191;28;20027;-71
2021/06/28 08:40:36;;;;;;;;;;;16.50;90.20;;;;;;4994469;28;19942;-71
2021/06/28 08:43:05;;;;;;;;;;;16.50;90.10;;;;;;4987077;28;20319;-71
2021/06/28 08:45:38;;;;;;;;;;;16.50;90.10;;;;;;4976960;28;19973;-70
2021/06/28 08:48:03;;;;;;;;;;;16.50;90.10;;;;;;4985303;28;19927;-71
2021/06/28 08:50:29;;;;;;;;;;;16.50;90.10;;;;;;4994499;28;20022;-71
2021/06/28 08:52:55;;;;;;;;;;;16.50;90.10;;;;;;5010285;28;19938;-71
2021/06/28 08:55:20;;;;;;;;;;;16.60;90.10;;;;;;4987712;28;19946;-71
2021/06/28 08:57:46;;;;;;;;;;;16.80;90.10;;;;;;4988946;28;20474;-71
2021/06/28 09:00:12;;;;;;;;;;;16.80;90.00;;;;;;4980729;28;19933;-71
2021/06/28 09:02:41;;;;;;;;;;;16.80;89.70;;;;;;4984010;28;20021;-71
2021/06/28 09:05:07;;;;;;;;;;;16.80;90.00;;;;;;4986444;28;19949;-71
2021/06/28 09:07:32;;;;;;;;;;;16.70;90.10;;;;;;4981088;28;20028;-71
2021/06/28 09:09:58;;;;;;;;;;;16.70;90.10;;;;;;4988206;28;20017;-70
2021/06/28 09:12:24;;;;;;;;;;;16.60;90.50;;;;;;4986452;28;20429;-70
2021/06/28 09:14:50;;;;;;;;;;;16.60;90.70;;;;;;4991183;28;19930;-71
2021/06/28 09:17:35;;;;;;;;;;;16.50;90.80;;;;;;5009574;28;20306;-73
2021/06/28 09:20:16;;;;;;;;;;;16.50;90.80;;;;;;5006464;28;19977;-72
2021/06/28 09:22:41;;;;;;;;;;;16.40;90.70;;;;;;4978041;28;20027;-72
2021/06/28 09:25:08;;;;;;;;;;;16.30;91.10;;;;;;4976955;28;20023;-70
2021/06/28 09:27:41;;;;;;;;;;;16.20;91.00;;;;;;4981361;28;19932;-71
2021/06/28 09:30:13;;;;;;;;;;;16.10;91.10;;;;;;4976309;28;20008;-73
2021/06/28 09:32:49;;;;;;;;;;;16.10;91.20;;;;;;4975046;28;19923;-75
2021/06/28 09:35:15;;;;;;;;;;;16.10;91.40;;;;;;4984816;28;19948;-73
2021/06/28 09:37:40;;;;;;;;;;;16.10;91.40;;;;;;5000539;28;20305;-71
2021/06/28 09:40:06;;;;;;;;;;;16.30;91.20;;;;;;5010380;28;19934;-74
2021/06/28 09:42:31;;;;;;;;;;;16.50;91.20;;;;;;5000077;28;19936;-76
2021/06/28 09:45:04;;;;;;;;;;;16.80;90.40;;;;;;4995494;28;19922;-73
2021/06/28 09:47:30;;;;;;;;;;;17.20;90.30;;;;;;4985577;28;19932;-72
2021/06/28 09:50:11;;;;;;;;;;;17.50;89.30;;;;;;4993805;28;19932;-72
2021/06/28 09:52:56;;;;;;;;;;;17.70;88.50;;;;;;4991063;28;19928;-75
2021/06/28 09:55:33;;;;;;;;;;;17.90;89.60;;;;;;4975196;28;19961;-71
2021/06/28 09:58:10;;;;;;;;;;;17.90;88.60;;;;;;4974640;28;20037;-72
2021/06/28 10:00:36;;;;;;;;;;;17.90;88.20;;;;;;4975457;28;20362;-71
2021/06/28 10:03:02;;;;;;;;;;;17.80;88.10;;;;;;4975872;28;19929;-72
2021/06/28 10:06:05;;;;;;;;;;;17.70;88.30;;;;;;4975482;28;19927;-71
2021/06/28 10:08:19;;;;;;;;;;;17.70;88.30;;;;;;4973908;28;20557;-70
2021/06/28 10:10:45;;;;;;;;;;;17.70;87.90;;;;;;4975041;28;20015;-70
2021/06/28 10:13:10;;;;;;;;;;;17.60;87.30;;;;;;4973206;28;19966;-70
2021/06/28 10:15:37;;;;;;;;;;;17.70;87.80;;;;;;4975372;28;19953;-70
2021/06/28 10:18:03;;;;;;;;;;;18.00;88.00;;;;;;4974214;28;19983;-71
2021/06/28 10:20:30;;;;;;;;;;;18.20;87.70;;;;;;4975262;28;19927;-71
2021/06/28 10:22:56;;;;;;;;;;;18.20;87.10;;;;;;4975245;28;20447;-71
2021/06/28 10:25:22;;;;;;;;;;;18.10;87.30;;;;;;4973783;28;19927;-70
2021/06/28 10:27:47;;;;;;;;;;;17.90;87.90;;;;;;4974000;28;20022;-70
2021/06/28 10:30:14;;;;;;;;;;;17.90;89.10;;;;;;4973906;28;20016;-71
2021/06/28 10:32:40;;;;;;;;;;;17.90;88.80;;;;;;4973829;28;20310;-70
2021/06/28 10:35:06;;;;;;;;;;;17.90;88.50;;;;;;4973875;28;19942;-70
2021/06/28 10:37:33;;;;;;;;;;;18.00;88.80;;;;;;4973557;28;19937;-70
2021/06/28 10:39:59;;;;;;;;;;;18.00;89.50;;;;;;4975015;28;20019;-71
2021/06/28 10:42:28;;;;;;;;;;;18.00;89.50;;;;;;4974272;28;19928;-70
2021/06/28 10:44:53;;;;;;;;;;;17.80;89.70;;;;;;4974502;28;19932;-70
2021/06/28 10:47:19;;;;;;;;;;;17.60;89.80;;;;;;4975001;28;19922;-72
2021/06/28 10:49:45;;;;;;;;;;;17.50;89.70;;;;;;5012639;28;19920;-70
2021/06/28 10:52:11;;;;;;;;;;;17.40;89.70;;;;;;5012665;28;20296;-70
2021/06/28 10:54:37;;;;;;;;;;;17.30;89.70;;;;;;5012429;28;19940;-72
2021/06/28 10:57:02;;;;;;;;;;;17.40;89.50;;;;;;5013705;28;19957;-72
2021/06/28 10:59:31;;;;;;;;;;;17.40;90.10;;;;;;5013795;28;19923;-70
2021/06/28 11:01:58;;;;;;;;;;;17.90;89.40;;;;;;5014038;28;20354;-71
2021/06/28 11:04:23;;;;;;;;;;;19.20;86.60;;;;;;5013817;28;19925;-71
2021/06/28 11:06:52;;;;;;;;;;;20.30;82.80;;;;;;5013760;28;19931;-70
2021/06/28 11:09:17;;;;;;;;;;;20.80;81.40;;;;;;5013779;28;19922;-68
2021/06/28 11:11:43;;;;;;;;;;;20.80;80.90;;;;;;5013826;28;20390;-71
2021/06/28 11:14:17;;;;;;;;;;;20.20;81.70;;;;;;5013722;28;19923;-73
2021/06/28 11:16:58;;;;;;;;;;;19.60;84.30;;;;;;5013592;28;19943;-70
2021/06/28 11:19:43;;;;;;;;;;;19.20;85.90;;;;;;5013495;28;19924;-70
2021/06/28 11:22:26;;;;;;;;;;;19.30;85.10;;;;;;5013814;28;19931;-71
2021/06/28 11:25:04;;;;;;;;;;;19.50;85.40;;;;;;5013385;28;19935;-70
2021/06/28 11:27:29;;;;;;;;;;;19.60;85.00;;;;;;5013584;28;19928;-72
2021/06/28 11:29:55;;;;;;;;;;;19.30;84.90;;;;;;5013563;28;19970;-70
2021/06/28 11:32:21;;;;;;;;;;;19.20;85.20;;;;;;5013524;28;19925;-71
2021/06/28 11:34:47;;;;;;;;;;;19.00;86.50;;;;;;5013429;28;20391;-71
2021/06/28 11:37:12;;;;;;;;;;;18.80;86.30;;;;;;5013306;28;19930;-70
2021/06/28 11:39:51;;;;;;;;;;;18.70;86.60;;;;;;5013539;28;19921;-71
2021/06/28 11:42:18;;;;;;;;;;;18.60;87.30;;;;;;5012366;28;19929;-71
2021/06/28 11:44:53;;;;;;;;;;;18.60;87.60;;;;;;5012409;28;19923;-71
2021/06/28 11:47:39;;;;;;;;;;;18.60;87.10;;;;;;5013439;28;19922;-71
2021/06/28 11:50:23;;;;;;;;;;;18.60;87.80;;;;;;4993724;28;19945;-70
2021/06/28 11:52:49;;;;;;;;;;;18.70;87.50;;;;;;4993738;28;19923;-71
2021/06/28 11:55:14;;;;;;;;;;;18.90;86.10;;;;;;4994379;28;19944;-71
2021/06/28 11:57:40;;;;;;;;;;;18.90;85.90;;;;;;4995718;28;20055;-73
2021/06/28 12:00:08;;;;;;;;;;;18.80;86.30;;;;;;4997128;28;20006;-72
2021/06/28 12:02:34;;;;;;;;;;;18.70;87.00;;;;;;4997468;28;19929;-75
2021/06/28 12:05:00;;;;;;;;;;;18.60;86.90;;;;;;4989047;28;19951;-77
2021/06/28 12:07:26;;;;;;;;;;;18.50;87.30;;;;;;4977480;28;19949;-79
2021/06/28 12:09:52;;;;;;;;;;;18.30;87.90;;;;;;4977318;28;19931;-73
2021/06/28 12:12:17;;;;;;;;;;;18.20;89.20;;;;;;4978628;28;19936;-74
2021/06/28 12:14:43;;;;;;;;;;;18.10;89.30;;;;;;4984469;28;19928;-76
2021/06/28 12:17:08;;;;;;;;;;;18.00;89.40;;;;;;4979656;28;19930;-77
2021/06/28 12:19:34;;;;;;;;;;;17.80;89.90;;;;;;4977245;28;19951;-79
2021/06/28 12:22:06;;;;;;;;;;;17.70;90.00;;;;;;4959890;28;19927;-77
2021/06/28 12:24:31;;;;;;;;;;;17.40;92.50;;;;;;4977270;28;20319;-78
2021/06/28 12:27:01;;;;;;;;;;;16.80;94.50;;;;;;4977333;28;20030;-77
2021/06/28 12:29:31;;;;;;;;;;;16.40;96.60;;;;;;4977303;28;19925;-76
2021/06/28 12:32:02;;;;;;;;;;;16.00;96.30;;;;;;4975818;28;19978;-75
2021/06/28 12:34:28;;;;;;;;;;;15.80;96.60;;;;;;4977193;28;19923;-77
2021/06/28 12:36:53;;;;;;;;;;;15.90;97.40;;;;;;4976814;28;19943;-74
2021/06/28 12:39:25;;;;;;;;;;;15.90;97.80;;;;;;4979114;28;19933;-74
2021/06/28 12:41:51;;;;;;;;;;;15.80;96.50;;;;;;4976782;28;20308;-75
2021/06/28 12:44:17;;;;;;;;;;;15.70;97.40;;;;;;4988528;28;19982;-74
2021/06/28 12:46:43;;;;;;;;;;;15.80;96.90;;;;;;4983097;28;19927;-76
2021/06/28 12:49:09;;;;;;;;;;;16.00;96.80;;;;;;5006553;28;19930;-75
2021/06/28 12:51:34;;;;;;;;;;;16.10;97.00;;;;;;5014766;28;19923;-75
2021/06/28 12:54:00;;;;;;;;;;;16.30;96.40;;;;;;4982106;28;19952;-74
2021/06/28 12:56:29;;;;;;;;;;;16.40;96.20;;;;;;4976590;28;19968;-73
2021/06/28 12:58:57;;;;;;;;;;;16.30;95.90;;;;;;4975492;28;19922;-75
2021/06/28 13:01:29;;;;;;;;;;;16.30;95.50;;;;;;4985180;28;20376;-73
2021/06/28 13:04:12;;;;;;;;;;;16.30;96.70;;;;;;4983419;28;19929;-72
2021/06/28 13:06:37;;;;;;;;;;;16.20;96.60;;;;;;4992781;28;20429;-74
2021/06/28 13:09:13;;;;;;;;;;;16.30;96.20;;;;;;4981308;28;19935;-73
2021/06/28 13:11:48;;;;;;;;;;;16.40;96.10;;;;;;4959051;28;19924;-74
2021/06/28 13:14:27;;;;;;;;;;;16.40;96.00;;;;;;4989536;28;19931;-73
2021/06/28 13:17:04;;;;;;;;;;;16.40;95.60;;;;;;4975816;28;19943;-74
2021/06/28 13:19:30;;;;;;;;;;;16.50;95.60;;;;;;4993158;28;20033;-72
2021/06/28 13:21:57;;;;;;;;;;;16.50;95.50;;;;;;4994950;28;19958;-72
2021/06/28 13:24:27;;;;;;;;;;;16.60;95.60;;;;;;4993502;28;19933;-73
2021/06/28 13:27:10;;;;;;;;;;;16.60;95.80;;;;;;4994733;28;19945;-72
2021/06/28 13:29:40;;;;;;;;;;;16.50;95.60;;;;;;4993740;28;20380;-73
2021/06/28 13:32:06;;;;;;;;;;;16.50;95.70;;;;;;4994154;28;19922;-72
2021/06/28 13:34:41;;;;;;;;;;;16.50;95.80;;;;;;4974920;28;19943;-75
2021/06/28 13:37:08;;;;;;;;;;;16.50;95.20;;;;;;4975765;28;19992;-71
2021/06/28 13:39:34;;;;;;;;;;;16.70;95.30;;;;;;4994132;28;19932;-73
2021/06/28 13:42:00;;;;;;;;;;;16.90;95.00;;;;;;4994212;28;19922;-74
2021/06/28 13:44:25;;;;;;;;;;;17.00;94.60;;;;;;4993318;28;20414;-74
2021/06/28 13:46:51;;;;;;;;;;;17.10;94.80;;;;;;4995489;28;19926;-73
2021/06/28 13:49:27;;;;;;;;;;;17.20;94.80;;;;;;4991528;28;19933;-73
2021/06/28 13:51:58;;;;;;;;;;;17.30;94.60;;;;;;4994263;28;19925;-75
2021/06/28 13:54:24;;;;;;;;;;;17.30;94.10;;;;;;4986020;28;19947;-74
2021/06/28 13:56:50;;;;;;;;;;;17.10;94.50;;;;;;4990189;28;19979;-73
2021/06/28 13:59:15;;;;;;;;;;;17.00;94.80;;;;;;4992874;28;19934;-72
2021/06/28 14:01:41;;;;;;;;;;;16.90;95.30;;;;;;5009951;28;19927;-74
2021/06/28 14:04:06;;;;;;;;;;;16.70;94.70;;;;;;4987642;28;19927;-73
2021/06/28 14:06:32;;;;;;;;;;;16.50;95.30;;;;;;4975448;28;19935;-72
2021/06/28 14:08:57;;;;;;;;;;;16.30;95.10;;;;;;4982253;28;19927;-73
2021/06/28 14:11:23;;;;;;;;;;;16.20;95.30;;;;;;4994471;28;20320;-74
2021/06/28 14:13:48;;;;;;;;;;;16.20;95.40;;;;;;4994707;28;19936;-74